Terminal Aerodrome Forecast
Issued by NWS

Home | Current Version | Previous Version | Text Only | Print | Product List | Glossary On
Versions: 1 2 3 4 5 6 7 8 9 10 11 12 13 14 15 16 17 18 19 20 21 22 23 24
000
FTUS44 KOUN 040520
TAFWWR
TAF
KWWR 040520Z 0406/0506 14008KT P6SM -SHRA BKN080 OVC150
      TEMPO 0406/0410 4SM -TSRA BKN050CB OVC100
     FM041200 16008KT P6SM FEW020 BKN070 OVC100
     FM041600 18013G21KT P6SM SCT070 SCT250
     FM050100 15010KT P6SM SKC=

USA.gov is the U.S. government's official web portal to all federal, state and local government web resources and services.